sensor_id;sensor_type;location;lat;lon;timestamp;P1;durP1;ratioP1;P2;durP2;ratioP2
35795;SDS011;21916;52.428;13.302;2023-04-24T00:01:31;8.77;;;5.60;;
35795;SDS011;21916;52.428;13.302;2023-04-24T00:03:59;7.32;;;5.88;;
35795;SDS011;21916;52.428;13.302;2023-04-24T00:06:25;8.27;;;6.00;;
35795;SDS011;21916;52.428;13.302;2023-04-24T00:09:01;9.50;;;6.30;;
35795;SDS011;21916;52.428;13.302;2023-04-24T00:11:27;8.05;;;6.53;;
35795;SDS011;21916;52.428;13.302;2023-04-24T00:13:55;7.05;;;5.78;;
35795;SDS011;21916;52.428;13.302;2023-04-24T00:16:22;6.90;;;6.20;;
35795;SDS011;21916;52.428;13.302;2023-04-24T00:18:48;8.48;;;6.15;;
35795;SDS011;21916;52.428;13.302;2023-04-24T00:21:14;8.48;;;6.25;;
35795;SDS011;21916;52.428;13.302;2023-04-24T00:23:43;9.38;;;6.50;;
35795;SDS011;21916;52.428;13.302;2023-04-24T00:26:09;6.95;;;5.55;;
35795;SDS011;21916;52.428;13.302;2023-04-24T00:28:35;7.30;;;6.38;;
35795;SDS011;21916;52.428;13.302;2023-04-24T00:31:02;9.65;;;6.88;;
35795;SDS011;21916;52.428;13.302;2023-04-24T00:33:28;9.68;;;6.80;;
35795;SDS011;21916;52.428;13.302;2023-04-24T00:35:54;7.30;;;5.95;;
35795;SDS011;21916;52.428;13.302;2023-04-24T00:38:20;8.43;;;6.00;;
35795;SDS011;21916;52.428;13.302;2023-04-24T00:40:47;11.85;;;7.15;;
35795;SDS011;21916;52.428;13.302;2023-04-24T00:43:15;9.27;;;6.60;;
35795;SDS011;21916;52.428;13.302;2023-04-24T00:45:41;8.68;;;6.65;;
35795;SDS011;21916;52.428;13.302;2023-04-24T00:48:08;8.38;;;6.93;;
35795;SDS011;21916;52.428;13.302;2023-04-24T00:50:35;9.50;;;6.53;;
35795;SDS011;21916;52.428;13.302;2023-04-24T00:53:01;9.40;;;6.93;;
35795;SDS011;21916;52.428;13.302;2023-04-24T00:55:27;7.95;;;5.85;;
35795;SDS011;21916;52.428;13.302;2023-04-24T00:57:54;8.13;;;6.70;;
35795;SDS011;21916;52.428;13.302;2023-04-24T01:00:20;8.18;;;6.53;;
35795;SDS011;21916;52.428;13.302;2023-04-24T01:02:46;8.95;;;6.82;;
35795;SDS011;21916;52.428;13.302;2023-04-24T01:05:13;6.85;;;6.20;;
35795;SDS011;21916;52.428;13.302;2023-04-24T01:07:43;8.38;;;5.93;;
35795;SDS011;21916;52.428;13.302;2023-04-24T01:10:13;8.70;;;6.43;;
35795;SDS011;21916;52.428;13.302;2023-04-24T01:12:40;7.80;;;5.60;;
35795;SDS011;21916;52.428;13.302;2023-04-24T01:15:06;7.82;;;6.78;;
35795;SDS011;21916;52.428;13.302;2023-04-24T01:17:34;13.88;;;6.43;;
35795;SDS011;21916;52.428;13.302;2023-04-24T01:20:00;8.68;;;7.38;;
35795;SDS011;21916;52.428;13.302;2023-04-24T01:22:30;8.90;;;6.63;;
35795;SDS011;21916;52.428;13.302;2023-04-24T01:24:56;10.82;;;7.13;;
35795;SDS011;21916;52.428;13.302;2023-04-24T01:27:22;10.65;;;7.03;;
35795;SDS011;21916;52.428;13.302;2023-04-24T01:29:48;7.50;;;6.70;;
35795;SDS011;21916;52.428;13.302;2023-04-24T01:32:14;8.75;;;6.30;;
35795;SDS011;21916;52.428;13.302;2023-04-24T01:34:41;7.55;;;6.75;;
35795;SDS011;21916;52.428;13.302;2023-04-24T01:37:07;10.07;;;6.88;;
35795;SDS011;21916;52.428;13.302;2023-04-24T01:39:33;8.75;;;7.03;;
35795;SDS011;21916;52.428;13.302;2023-04-24T01:41:59;7.82;;;7.03;;
35795;SDS011;21916;52.428;13.302;2023-04-24T01:44:27;9.30;;;7.22;;
35795;SDS011;21916;52.428;13.302;2023-04-24T01:46:54;8.05;;;6.65;;
35795;SDS011;21916;52.428;13.302;2023-04-24T01:49:20;11.98;;;8.10;;
35795;SDS011;21916;52.428;13.302;2023-04-24T01:51:47;8.15;;;7.28;;
35795;SDS011;21916;52.428;13.302;2023-04-24T01:54:13;10.05;;;7.35;;
35795;SDS011;21916;52.428;13.302;2023-04-24T01:56:42;9.77;;;7.65;;
35795;SDS011;21916;52.428;13.302;2023-04-24T01:59:09;8.00;;;7.00;;
35795;SDS011;21916;52.428;13.302;2023-04-24T02:01:36;8.98;;;7.28;;
35795;SDS011;21916;52.428;13.302;2023-04-24T02:04:06;8.63;;;7.45;;
35795;SDS011;21916;52.428;13.302;2023-04-24T02:06:34;8.90;;;7.30;;
35795;SDS011;21916;52.428;13.302;2023-04-24T02:09:00;9.93;;;7.47;;
35795;SDS011;21916;52.428;13.302;2023-04-24T02:11:27;10.07;;;7.60;;
35795;SDS011;21916;52.428;13.302;2023-04-24T02:13:53;8.80;;;7.10;;
35795;SDS011;21916;52.428;13.302;2023-04-24T02:16:20;11.23;;;7.47;;
35795;SDS011;21916;52.428;13.302;2023-04-24T02:18:46;10.07;;;7.38;;
35795;SDS011;21916;52.428;13.302;2023-04-24T02:21:12;9.82;;;7.85;;
35795;SDS011;21916;52.428;13.302;2023-04-24T02:23:38;9.27;;;7.78;;
35795;SDS011;21916;52.428;13.302;2023-04-24T02:26:04;9.18;;;7.53;;
35795;SDS011;21916;52.428;13.302;2023-04-24T02:28:30;11.48;;;7.95;;
35795;SDS011;21916;52.428;13.302;2023-04-24T02:30:56;10.95;;;8.07;;
35795;SDS011;21916;52.428;13.302;2023-04-24T02:33:23;9.60;;;7.70;;
35795;SDS011;21916;52.428;13.302;2023-04-24T02:35:50;10.18;;;8.13;;
35795;SDS011;21916;52.428;13.302;2023-04-24T02:38:16;9.35;;;8.10;;
35795;SDS011;21916;52.428;13.302;2023-04-24T02:40:42;9.10;;;7.88;;
35795;SDS011;21916;52.428;13.302;2023-04-24T02:43:09;21.80;;;9.02;;
35795;SDS011;21916;52.428;13.302;2023-04-24T02:45:36;10.52;;;8.60;;
35795;SDS011;21916;52.428;13.302;2023-04-24T02:48:03;9.27;;;7.80;;
35795;SDS011;21916;52.428;13.302;2023-04-24T02:50:29;10.25;;;8.32;;
35795;SDS011;21916;52.428;13.302;2023-04-24T02:52:55;9.75;;;7.93;;
35795;SDS011;21916;52.428;13.302;2023-04-24T02:55:21;8.48;;;7.07;;
35795;SDS011;21916;52.428;13.302;2023-04-24T02:57:47;9.60;;;7.90;;
35795;SDS011;21916;52.428;13.302;2023-04-24T03:00:13;10.32;;;8.35;;
35795;SDS011;21916;52.428;13.302;2023-04-24T03:02:39;8.43;;;7.55;;
35795;SDS011;21916;52.428;13.302;2023-04-24T03:05:05;9.57;;;8.07;;
35795;SDS011;21916;52.428;13.302;2023-04-24T03:07:32;10.55;;;8.38;;
35795;SDS011;21916;52.428;13.302;2023-04-24T03:09:58;9.85;;;8.38;;
35795;SDS011;21916;52.428;13.302;2023-04-24T03:12:25;8.95;;;7.80;;
35795;SDS011;21916;52.428;13.302;2023-04-24T03:14:51;9.98;;;8.18;;
35795;SDS011;21916;52.428;13.302;2023-04-24T03:17:18;10.27;;;8.23;;
35795;SDS011;21916;52.428;13.302;2023-04-24T03:19:44;11.05;;;8.63;;
35795;SDS011;21916;52.428;13.302;2023-04-24T03:22:11;9.77;;;8.77;;
35795;SDS011;21916;52.428;13.302;2023-04-24T03:24:39;10.98;;;8.40;;
35795;SDS011;21916;52.428;13.302;2023-04-24T03:27:06;12.00;;;8.75;;
35795;SDS011;21916;52.428;13.302;2023-04-24T03:29:59;11.50;;;8.52;;
35795;SDS011;21916;52.428;13.302;2023-04-24T03:32:46;12.05;;;9.25;;
35795;SDS011;21916;52.428;13.302;2023-04-24T03:35:16;9.27;;;8.38;;
35795;SDS011;21916;52.428;13.302;2023-04-24T03:37:42;11.68;;;8.82;;
35795;SDS011;21916;52.428;13.302;2023-04-24T03:40:26;10.40;;;8.52;;
35795;SDS011;21916;52.428;13.302;2023-04-24T03:42:55;12.32;;;9.23;;
35795;SDS011;21916;52.428;13.302;2023-04-24T03:45:21;9.90;;;8.77;;
35795;SDS011;21916;52.428;13.302;2023-04-24T03:47:50;9.40;;;7.72;;
35795;SDS011;21916;52.428;13.302;2023-04-24T03:50:16;10.73;;;8.52;;
35795;SDS011;21916;52.428;13.302;2023-04-24T03:52:43;9.23;;;8.23;;
35795;SDS011;21916;52.428;13.302;2023-04-24T03:55:11;10.70;;;7.85;;
35795;SDS011;21916;52.428;13.302;2023-04-24T03:57:43;13.80;;;9.38;;
35795;SDS011;21916;52.428;13.302;2023-04-24T04:00:17;12.20;;;7.55;;
35795;SDS011;21916;52.428;13.302;2023-04-24T04:02:51;12.75;;;9.27;;
35795;SDS011;21916;52.428;13.302;2023-04-24T04:05:17;11.13;;;8.20;;
35795;SDS011;21916;52.428;13.302;2023-04-24T04:07:43;12.38;;;8.20;;
35795;SDS011;21916;52.428;13.302;2023-04-24T04:10:09;9.98;;;8.18;;
35795;SDS011;21916;52.428;13.302;2023-04-24T04:12:37;8.75;;;7.85;;
35795;SDS011;21916;52.428;13.302;2023-04-24T04:15:03;8.82;;;7.93;;
35795;SDS011;21916;52.428;13.302;2023-04-24T04:17:31;8.70;;;7.80;;
35795;SDS011;21916;52.428;13.302;2023-04-24T04:19:59;9.48;;;8.13;;
35795;SDS011;21916;52.428;13.302;2023-04-24T04:22:25;8.60;;;7.28;;
35795;SDS011;21916;52.428;13.302;2023-04-24T04:24:52;8.70;;;7.28;;
35795;SDS011;21916;52.428;13.302;2023-04-24T04:27:21;8.40;;;6.95;;
35795;SDS011;21916;52.428;13.302;2023-04-24T04:32:22;7.95;;;6.55;;
35795;SDS011;21916;52.428;13.302;2023-04-24T04:34:49;8.35;;;7.13;;
35795;SDS011;21916;52.428;13.302;2023-04-24T04:37:18;8.27;;;6.18;;
35795;SDS011;21916;52.428;13.302;2023-04-24T04:40:03;7.93;;;5.80;;
35795;SDS011;21916;52.428;13.302;2023-04-24T04:42:38;6.38;;;5.13;;
35795;SDS011;21916;52.428;13.302;2023-04-24T04:45:06;8.30;;;5.50;;
35795;SDS011;21916;52.428;13.302;2023-04-24T04:47:46;6.80;;;5.10;;
35795;SDS011;21916;52.428;13.302;2023-04-24T04:50:13;6.28;;;5.00;;
35795;SDS011;21916;52.428;13.302;2023-04-24T04:52:39;5.53;;;4.72;;
35795;SDS011;21916;52.428;13.302;2023-04-24T04:55:18;7.22;;;4.38;;
35795;SDS011;21916;52.428;13.302;2023-04-24T04:58:16;6.85;;;5.05;;
35795;SDS011;21916;52.428;13.302;2023-04-24T05:00:44;7.20;;;4.85;;
35795;SDS011;21916;52.428;13.302;2023-04-24T05:03:19;7.13;;;4.10;;
35795;SDS011;21916;52.428;13.302;2023-04-24T05:05:46;6.70;;;4.38;;
35795;SDS011;21916;52.428;13.302;2023-04-24T05:08:14;5.82;;;4.10;;
35795;SDS011;21916;52.428;13.302;2023-04-24T05:10:41;7.25;;;3.83;;
35795;SDS011;21916;52.428;13.302;2023-04-24T05:13:08;6.07;;;3.80;;
35795;SDS011;21916;52.428;13.302;2023-04-24T05:15:35;9.80;;;3.78;;
35795;SDS011;21916;52.428;13.302;2023-04-24T05:18:02;6.68;;;4.05;;
35795;SDS011;21916;52.428;13.302;2023-04-24T05:20:28;4.57;;;3.60;;
35795;SDS011;21916;52.428;13.302;2023-04-24T05:22:54;4.85;;;3.05;;
35795;SDS011;21916;52.428;13.302;2023-04-24T05:25:22;4.72;;;3.15;;
35795;SDS011;21916;52.428;13.302;2023-04-24T05:27:54;5.80;;;3.50;;
35795;SDS011;21916;52.428;13.302;2023-04-24T05:30:21;6.20;;;3.70;;
35795;SDS011;21916;52.428;13.302;2023-04-24T05:32:49;4.65;;;3.50;;
35795;SDS011;21916;52.428;13.302;2023-04-24T05:35:14;4.80;;;3.13;;
35795;SDS011;21916;52.428;13.302;2023-04-24T05:37:41;4.63;;;3.35;;
35795;SDS011;21916;52.428;13.302;2023-04-24T05:40:08;8.15;;;3.60;;
35795;SDS011;21916;52.428;13.302;2023-04-24T05:42:35;5.78;;;2.70;;
35795;SDS011;21916;52.428;13.302;2023-04-24T05:45:01;5.00;;;3.22;;
35795;SDS011;21916;52.428;13.302;2023-04-24T05:47:28;3.55;;;2.67;;
35795;SDS011;21916;52.428;13.302;2023-04-24T05:49:53;4.63;;;2.90;;
35795;SDS011;21916;52.428;13.302;2023-04-24T05:52:20;3.55;;;2.83;;
35795;SDS011;21916;52.428;13.302;2023-04-24T05:54:47;5.82;;;3.25;;
35795;SDS011;21916;52.428;13.302;2023-04-24T05:57:19;4.13;;;2.85;;
35795;SDS011;21916;52.428;13.302;2023-04-24T05:59:53;3.92;;;2.50;;
35795;SDS011;21916;52.428;13.302;2023-04-24T06:02:22;3.85;;;2.55;;
35795;SDS011;21916;52.428;13.302;2023-04-24T06:04:48;4.82;;;2.90;;
35795;SDS011;21916;52.428;13.302;2023-04-24T06:07:14;4.00;;;2.60;;
35795;SDS011;21916;52.428;13.302;2023-04-24T06:09:42;4.50;;;2.17;;
35795;SDS011;21916;52.428;13.302;2023-04-24T06:12:08;4.50;;;2.30;;
35795;SDS011;21916;52.428;13.302;2023-04-24T06:14:54;3.90;;;2.33;;
35795;SDS011;21916;52.428;13.302;2023-04-24T06:17:31;4.60;;;2.60;;
35795;SDS011;21916;52.428;13.302;2023-04-24T06:19:58;6.18;;;2.08;;
35795;SDS011;21916;52.428;13.302;2023-04-24T06:22:24;2.67;;;2.08;;
35795;SDS011;21916;52.428;13.302;2023-04-24T06:24:50;3.30;;;2.00;;
35795;SDS011;21916;52.428;13.302;2023-04-24T06:27:16;3.00;;;1.90;;
35795;SDS011;21916;52.428;13.302;2023-04-24T06:29:42;3.53;;;2.38;;
35795;SDS011;21916;52.428;13.302;2023-04-24T06:32:09;3.97;;;1.83;;
35795;SDS011;21916;52.428;13.302;2023-04-24T06:34:35;5.40;;;1.90;;
35795;SDS011;21916;52.428;13.302;2023-04-24T06:37:01;1.60;;;1.10;;
35795;SDS011;21916;52.428;13.302;2023-04-24T06:39:27;4.03;;;1.23;;
35795;SDS011;21916;52.428;13.302;2023-04-24T06:41:53;3.20;;;1.20;;
35795;SDS011;21916;52.428;13.302;2023-04-24T06:44:19;2.50;;;1.33;;
35795;SDS011;21916;52.428;13.302;2023-04-24T06:46:45;2.95;;;1.20;;
35795;SDS011;21916;52.428;13.302;2023-04-24T06:49:12;4.88;;;1.25;;
35795;SDS011;21916;52.428;13.302;2023-04-24T06:51:41;2.42;;;1.10;;
35795;SDS011;21916;52.428;13.302;2023-04-24T06:54:06;1.73;;;1.13;;
35795;SDS011;21916;52.428;13.302;2023-04-24T06:56:32;2.55;;;1.15;;
35795;SDS011;21916;52.428;13.302;2023-04-24T06:58:59;3.45;;;1.08;;
35795;SDS011;21916;52.428;13.302;2023-04-24T07:01:25;2.15;;;1.08;;
35795;SDS011;21916;52.428;13.302;2023-04-24T07:03:54;3.90;;;1.60;;
35795;SDS011;21916;52.428;13.302;2023-04-24T07:06:20;2.55;;;1.58;;
35795;SDS011;21916;52.428;13.302;2023-04-24T07:08:48;1.70;;;0.80;;
35795;SDS011;21916;52.428;13.302;2023-04-24T07:11:14;4.97;;;1.02;;
35795;SDS011;21916;52.428;13.302;2023-04-24T07:13:40;2.08;;;1.17;;
35795;SDS011;21916;52.428;13.302;2023-04-24T07:16:07;1.67;;;0.77;;
35795;SDS011;21916;52.428;13.302;2023-04-24T07:18:33;3.78;;;1.25;;
35795;SDS011;21916;52.428;13.302;2023-04-24T07:21:00;3.13;;;1.20;;
35795;SDS011;21916;52.428;13.302;2023-04-24T07:23:26;3.67;;;1.23;;
35795;SDS011;21916;52.428;13.302;2023-04-24T07:25:52;2.90;;;1.10;;
35795;SDS011;21916;52.428;13.302;2023-04-24T07:28:19;2.05;;;0.80;;
35795;SDS011;21916;52.428;13.302;2023-04-24T07:30:45;2.33;;;0.90;;
35795;SDS011;21916;52.428;13.302;2023-04-24T07:33:11;4.75;;;1.80;;
35795;SDS011;21916;52.428;13.302;2023-04-24T07:35:38;2.85;;;1.08;;
35795;SDS011;21916;52.428;13.302;2023-04-24T07:38:04;1.27;;;1.00;;
35795;SDS011;21916;52.428;13.302;2023-04-24T07:40:31;3.33;;;1.45;;
35795;SDS011;21916;52.428;13.302;2023-04-24T07:42:57;2.15;;;0.80;;
35795;SDS011;21916;52.428;13.302;2023-04-24T07:45:24;1.20;;;0.98;;
35795;SDS011;21916;52.428;13.302;2023-04-24T07:47:51;3.08;;;0.70;;
35795;SDS011;21916;52.428;13.302;2023-04-24T07:50:17;1.90;;;0.70;;
35795;SDS011;21916;52.428;13.302;2023-04-24T07:52:43;3.25;;;0.93;;
35795;SDS011;21916;52.428;13.302;2023-04-24T07:55:09;1.05;;;0.82;;
35795;SDS011;21916;52.428;13.302;2023-04-24T07:57:35;1.65;;;0.90;;
35795;SDS011;21916;52.428;13.302;2023-04-24T08:00:02;1.33;;;0.73;;
35795;SDS011;21916;52.428;13.302;2023-04-24T08:02:37;2.97;;;1.00;;
35795;SDS011;21916;52.428;13.302;2023-04-24T08:05:03;2.78;;;1.17;;
35795;SDS011;21916;52.428;13.302;2023-04-24T08:07:30;1.20;;;0.80;;
35795;SDS011;21916;52.428;13.302;2023-04-24T08:09:56;3.65;;;0.70;;
35795;SDS011;21916;52.428;13.302;2023-04-24T08:12:22;1.67;;;0.70;;
35795;SDS011;21916;52.428;13.302;2023-04-24T08:14:48;1.38;;;0.50;;
35795;SDS011;21916;52.428;13.302;2023-04-24T08:17:14;1.30;;;0.60;;
35795;SDS011;21916;52.428;13.302;2023-04-24T08:19:42;1.88;;;0.70;;
35795;SDS011;21916;52.428;13.302;2023-04-24T08:22:13;1.20;;;0.75;;
35795;SDS011;21916;52.428;13.302;2023-04-24T08:24:41;1.70;;;0.90;;
35795;SDS011;21916;52.428;13.302;2023-04-24T08:27:09;1.35;;;0.70;;
35795;SDS011;21916;52.428;13.302;2023-04-24T08:29:36;2.58;;;0.70;;
35795;SDS011;21916;52.428;13.302;2023-04-24T08:32:03;0.73;;;0.73;;
35795;SDS011;21916;52.428;13.302;2023-04-24T08:34:29;0.70;;;0.50;;
35795;SDS011;21916;52.428;13.302;2023-04-24T08:36:55;2.70;;;0.68;;
35795;SDS011;21916;52.428;13.302;2023-04-24T08:39:21;1.65;;;0.60;;
35795;SDS011;21916;52.428;13.302;2023-04-24T08:41:48;1.75;;;0.90;;
35795;SDS011;21916;52.428;13.302;2023-04-24T08:44:17;0.98;;;0.68;;
35795;SDS011;21916;52.428;13.302;2023-04-24T08:46:45;3.08;;;0.60;;
35795;SDS011;21916;52.428;13.302;2023-04-24T08:49:14;3.72;;;0.70;;
35795;SDS011;21916;52.428;13.302;2023-04-24T08:51:43;1.13;;;0.70;;
35795;SDS011;21916;52.428;13.302;2023-04-24T08:54:13;3.53;;;0.80;;
35795;SDS011;21916;52.428;13.302;2023-04-24T08:56:39;0.70;;;0.70;;
35795;SDS011;21916;52.428;13.302;2023-04-24T08:59:08;1.30;;;0.60;;
35795;SDS011;21916;52.428;13.302;2023-04-24T09:01:35;2.30;;;1.00;;
35795;SDS011;21916;52.428;13.302;2023-04-24T09:04:04;2.47;;;0.77;;
35795;SDS011;21916;52.428;13.302;2023-04-24T09:06:32;2.17;;;0.73;;
35795;SDS011;21916;52.428;13.302;2023-04-24T09:09:00;2.60;;;0.73;;
35795;SDS011;21916;52.428;13.302;2023-04-24T09:11:27;1.88;;;1.00;;
35795;SDS011;21916;52.428;13.302;2023-04-24T09:13:53;1.48;;;0.70;;
35795;SDS011;21916;52.428;13.302;2023-04-24T09:16:20;2.05;;;0.90;;
35795;SDS011;21916;52.428;13.302;2023-04-24T09:18:48;1.50;;;0.70;;
35795;SDS011;21916;52.428;13.302;2023-04-24T09:21:14;4.18;;;0.80;;
35795;SDS011;21916;52.428;13.302;2023-04-24T09:23:40;1.00;;;0.70;;
35795;SDS011;21916;52.428;13.302;2023-04-24T09:26:06;1.67;;;0.80;;
35795;SDS011;21916;52.428;13.302;2023-04-24T09:28:36;3.50;;;1.00;;
35795;SDS011;21916;52.428;13.302;2023-04-24T09:31:05;3.65;;;0.90;;
35795;SDS011;21916;52.428;13.302;2023-04-24T09:33:32;1.23;;;0.75;;
35795;SDS011;21916;52.428;13.302;2023-04-24T09:35:58;2.70;;;0.73;;
35795;SDS011;21916;52.428;13.302;2023-04-24T09:41:07;0.93;;;0.68;;
35795;SDS011;21916;52.428;13.302;2023-04-24T09:43:38;3.58;;;0.80;;
35795;SDS011;21916;52.428;13.302;2023-04-24T09:46:05;2.03;;;0.88;;
35795;SDS011;21916;52.428;13.302;2023-04-24T09:48:33;2.80;;;1.10;;
35795;SDS011;21916;52.428;13.302;2023-04-24T09:51:00;2.35;;;1.15;;
35795;SDS011;21916;52.428;13.302;2023-04-24T09:53:28;2.42;;;0.90;;
35795;SDS011;21916;52.428;13.302;2023-04-24T09:55:55;5.03;;;1.63;;
35795;SDS011;21916;52.428;13.302;2023-04-24T09:58:26;1.48;;;0.77;;
35795;SDS011;21916;52.428;13.302;2023-04-24T10:00:55;0.50;;;0.50;;
35795;SDS011;21916;52.428;13.302;2023-04-24T10:03:25;2.63;;;0.93;;
35795;SDS011;21916;52.428;13.302;2023-04-24T10:05:54;2.70;;;0.98;;
35795;SDS011;21916;52.428;13.302;2023-04-24T10:08:33;2.20;;;0.88;;
35795;SDS011;21916;52.428;13.302;2023-04-24T10:11:00;1.40;;;0.90;;
35795;SDS011;21916;52.428;13.302;2023-04-24T10:13:26;3.13;;;0.70;;
35795;SDS011;21916;52.428;13.302;2023-04-24T10:15:54;2.40;;;0.90;;
35795;SDS011;21916;52.428;13.302;2023-04-24T10:18:21;2.63;;;0.70;;
35795;SDS011;21916;52.428;13.302;2023-04-24T10:20:49;1.17;;;0.60;;
35795;SDS011;21916;52.428;13.302;2023-04-24T10:23:15;2.95;;;1.00;;
35795;SDS011;21916;52.428;13.302;2023-04-24T10:25:44;1.50;;;0.63;;
35795;SDS011;21916;52.428;13.302;2023-04-24T10:28:10;2.33;;;0.70;;
35795;SDS011;21916;52.428;13.302;2023-04-24T10:30:37;2.65;;;0.70;;
35795;SDS011;21916;52.428;13.302;2023-04-24T10:33:07;4.30;;;0.65;;
35795;SDS011;21916;52.428;13.302;2023-04-24T10:35:34;4.75;;;0.80;;
35795;SDS011;21916;52.428;13.302;2023-04-24T10:38:11;3.15;;;0.80;;
35795;SDS011;21916;52.428;13.302;2023-04-24T10:40:39;2.45;;;0.50;;
35795;SDS011;21916;52.428;13.302;2023-04-24T10:43:06;2.90;;;0.70;;
35795;SDS011;21916;52.428;13.302;2023-04-24T10:45:39;4.07;;;0.88;;
35795;SDS011;21916;52.428;13.302;2023-04-24T10:48:06;1.52;;;0.73;;
35795;SDS011;21916;52.428;13.302;2023-04-24T10:50:45;4.38;;;0.95;;
35795;SDS011;21916;52.428;13.302;2023-04-24T10:53:14;1.85;;;0.93;;
35795;SDS011;21916;52.428;13.302;2023-04-24T10:55:49;2.15;;;0.80;;
35795;SDS011;21916;52.428;13.302;2023-04-24T10:58:21;1.20;;;0.70;;
35795;SDS011;21916;52.428;13.302;2023-04-24T11:00:58;1.65;;;0.60;;
35795;SDS011;21916;52.428;13.302;2023-04-24T11:03:29;1.42;;;0.65;;
35795;SDS011;21916;52.428;13.302;2023-04-24T11:06:06;2.17;;;0.70;;
35795;SDS011;21916;52.428;13.302;2023-04-24T11:08:37;1.92;;;0.70;;
35795;SDS011;21916;52.428;13.302;2023-04-24T11:11:25;1.08;;;0.70;;
35795;SDS011;21916;52.428;13.302;2023-04-24T11:27:21;0.70;;;0.60;;
35795;SDS011;21916;52.428;13.302;2023-04-24T11:32:27;1.33;;;0.80;;
35795;SDS011;21916;52.428;13.302;2023-04-24T11:37:34;1.65;;;0.80;;
35795;SDS011;21916;52.428;13.302;2023-04-24T11:40:02;1.27;;;0.50;;
35795;SDS011;21916;52.428;13.302;2023-04-24T11:42:33;1.48;;;0.73;;
35795;SDS011;21916;52.428;13.302;2023-04-24T11:45:00;0.98;;;0.60;;
35795;SDS011;21916;52.428;13.302;2023-04-24T11:47:28;0.98;;;0.77;;
35795;SDS011;21916;52.428;13.302;2023-04-24T11:49:55;1.85;;;0.65;;
35795;SDS011;21916;52.428;13.302;2023-04-24T11:52:23;3.85;;;1.08;;
35795;SDS011;21916;52.428;13.302;2023-04-24T11:54:50;3.05;;;0.80;;
35795;SDS011;21916;52.428;13.302;2023-04-24T11:57:16;1.80;;;0.57;;
35795;SDS011;21916;52.428;13.302;2023-04-24T11:59:47;5.88;;;0.90;;
35795;SDS011;21916;52.428;13.302;2023-04-24T12:02:19;1.58;;;0.60;;
35795;SDS011;21916;52.428;13.302;2023-04-24T12:04:49;2.72;;;0.60;;
35795;SDS011;21916;52.428;13.302;2023-04-24T12:07:15;0.95;;;0.65;;
35795;SDS011;21916;52.428;13.302;2023-04-24T12:09:45;0.55;;;0.50;;
35795;SDS011;21916;52.428;13.302;2023-04-24T12:12:13;0.90;;;0.55;;
35795;SDS011;21916;52.428;13.302;2023-04-24T12:14:43;1.45;;;0.70;;
35795;SDS011;21916;52.428;13.302;2023-04-24T12:17:12;8.23;;;1.08;;
35795;SDS011;21916;52.428;13.302;2023-04-24T12:19:44;3.35;;;0.93;;
35795;SDS011;21916;52.428;13.302;2023-04-24T12:22:13;2.25;;;0.65;;
35795;SDS011;21916;52.428;13.302;2023-04-24T12:24:55;2.28;;;0.95;;
35795;SDS011;21916;52.428;13.302;2023-04-24T12:27:22;2.60;;;0.65;;
35795;SDS011;21916;52.428;13.302;2023-04-24T12:29:53;3.90;;;1.23;;
35795;SDS011;21916;52.428;13.302;2023-04-24T12:32:23;3.45;;;0.70;;
35795;SDS011;21916;52.428;13.302;2023-04-24T12:34:51;1.38;;;0.70;;
35795;SDS011;21916;52.428;13.302;2023-04-24T12:37:19;2.67;;;0.52;;
35795;SDS011;21916;52.428;13.302;2023-04-24T12:40:06;3.30;;;0.60;;
35795;SDS011;21916;52.428;13.302;2023-04-24T12:42:33;0.85;;;0.60;;
35795;SDS011;21916;52.428;13.302;2023-04-24T12:45:01;2.78;;;0.70;;
35795;SDS011;21916;52.428;13.302;2023-04-24T12:47:30;1.05;;;0.70;;
35795;SDS011;21916;52.428;13.302;2023-04-24T12:49:56;1.55;;;0.60;;
35795;SDS011;21916;52.428;13.302;2023-04-24T12:52:23;2.13;;;0.60;;
35795;SDS011;21916;52.428;13.302;2023-04-24T12:54:55;1.13;;;0.60;;
35795;SDS011;21916;52.428;13.302;2023-04-24T12:57:24;1.25;;;0.60;;
35795;SDS011;21916;52.428;13.302;2023-04-24T12:59:53;4.18;;;0.75;;
35795;SDS011;21916;52.428;13.302;2023-04-24T13:02:22;2.58;;;0.57;;
35795;SDS011;21916;52.428;13.302;2023-04-24T13:04:49;2.67;;;0.77;;
35795;SDS011;21916;52.428;13.302;2023-04-24T13:07:15;4.70;;;0.68;;
35795;SDS011;21916;52.428;13.302;2023-04-24T13:09:42;1.88;;;0.70;;
35795;SDS011;21916;52.428;13.302;2023-04-24T13:12:10;2.90;;;0.65;;
35795;SDS011;21916;52.428;13.302;2023-04-24T13:14:37;1.55;;;0.60;;
35795;SDS011;21916;52.428;13.302;2023-04-24T13:17:03;0.70;;;0.50;;
35795;SDS011;21916;52.428;13.302;2023-04-24T13:19:34;0.52;;;0.52;;
35795;SDS011;21916;52.428;13.302;2023-04-24T13:22:06;1.40;;;0.50;;
35795;SDS011;21916;52.428;13.302;2023-04-24T13:24:34;3.60;;;0.57;;
35795;SDS011;21916;52.428;13.302;2023-04-24T13:27:00;3.78;;;0.52;;
35795;SDS011;21916;52.428;13.302;2023-04-24T13:29:26;2.60;;;0.60;;
35795;SDS011;21916;52.428;13.302;2023-04-24T13:31:53;2.50;;;0.60;;
35795;SDS011;21916;52.428;13.302;2023-04-24T13:34:23;1.23;;;0.70;;
35795;SDS011;21916;52.428;13.302;2023-04-24T13:36:52;0.60;;;0.60;;
35795;SDS011;21916;52.428;13.302;2023-04-24T13:39:20;1.48;;;0.40;;
35795;SDS011;21916;52.428;13.302;2023-04-24T13:41:48;1.60;;;0.60;;
35795;SDS011;21916;52.428;13.302;2023-04-24T13:44:14;1.27;;;0.70;;
35795;SDS011;21916;52.428;13.302;2023-04-24T13:46:41;3.83;;;0.60;;
35795;SDS011;21916;52.428;13.302;2023-04-24T13:49:09;3.97;;;1.05;;
35795;SDS011;21916;52.428;13.302;2023-04-24T13:51:36;0.77;;;0.60;;
35795;SDS011;21916;52.428;13.302;2023-04-24T13:54:02;1.08;;;0.70;;
35795;SDS011;21916;52.428;13.302;2023-04-24T13:56:30;1.08;;;0.60;;
35795;SDS011;21916;52.428;13.302;2023-04-24T13:58:56;0.77;;;0.50;;
35795;SDS011;21916;52.428;13.302;2023-04-24T14:01:22;1.00;;;0.50;;
35795;SDS011;21916;52.428;13.302;2023-04-24T14:03:51;1.10;;;0.60;;
35795;SDS011;21916;52.428;13.302;2023-04-24T14:06:18;1.98;;;0.80;;
35795;SDS011;21916;52.428;13.302;2023-04-24T14:08:44;1.45;;;0.50;;
35795;SDS011;21916;52.428;13.302;2023-04-24T14:11:12;1.08;;;0.65;;
35795;SDS011;21916;52.428;13.302;2023-04-24T14:13:38;1.13;;;1.02;;
35795;SDS011;21916;52.428;13.302;2023-04-24T14:16:06;0.60;;;0.60;;
35795;SDS011;21916;52.428;13.302;2023-04-24T14:18:32;0.82;;;0.80;;
35795;SDS011;21916;52.428;13.302;2023-04-24T14:20:58;1.10;;;0.70;;
35795;SDS011;21916;52.428;13.302;2023-04-24T14:23:24;2.40;;;1.20;;
35795;SDS011;21916;52.428;13.302;2023-04-24T14:25:51;1.63;;;0.70;;
35795;SDS011;21916;52.428;13.302;2023-04-24T14:28:19;4.07;;;0.73;;
35795;SDS011;21916;52.428;13.302;2023-04-24T14:30:45;4.35;;;0.90;;
35795;SDS011;21916;52.428;13.302;2023-04-24T14:33:12;1.67;;;0.60;;
35795;SDS011;21916;52.428;13.302;2023-04-24T14:35:39;1.92;;;0.90;;
35795;SDS011;21916;52.428;13.302;2023-04-24T14:38:07;1.98;;;0.70;;
35795;SDS011;21916;52.428;13.302;2023-04-24T14:40:33;1.75;;;0.73;;
35795;SDS011;21916;52.428;13.302;2023-04-24T14:43:01;2.38;;;1.00;;
35795;SDS011;21916;52.428;13.302;2023-04-24T14:45:28;3.80;;;0.98;;
35795;SDS011;21916;52.428;13.302;2023-04-24T14:47:54;2.30;;;0.80;;
35795;SDS011;21916;52.428;13.302;2023-04-24T14:50:20;3.47;;;0.80;;
35795;SDS011;21916;52.428;13.302;2023-04-24T14:52:47;2.25;;;0.80;;
35795;SDS011;21916;52.428;13.302;2023-04-24T14:55:13;2.35;;;0.77;;
35795;SDS011;21916;52.428;13.302;2023-04-24T14:57:39;1.40;;;0.90;;
35795;SDS011;21916;52.428;13.302;2023-04-24T15:00:06;1.75;;;0.88;;
35795;SDS011;21916;52.428;13.302;2023-04-24T15:02:35;1.80;;;1.10;;